Data for 10/25/2013

Time Sea-Level Adjusted Pressure Absolute Pressure Temperature Relative Humidity Dew Point   
(mb) (inHg) (mb) (inHg) (C) (F) (%) (C) (F)
00:05 1022 30.18 852 25.16 6 42.9 46 -4.6 23.7
00:10 1022 30.18 852 25.16 5.6 42.1 48 -4.6 23.7
00:15 1022 30.18 852 25.16 5.3 41.5 49 -4.6 23.7
00:20 1022 30.18 852 25.16 5.4 41.7 47 -5 23
00:25 1022 30.18 852 25.16 5.4 41.8 49 -4.4 24.1
00:30 1022 30.18 852 25.16 5.1 41.2 50 -4.4 24.1
00:35 1022 30.18 852 25.16 5.1 41.2 50 -4.4 24
00:40 1022 30.18 852 25.16 5.3 41.6 48 -4.9 23.1
00:45 1022 30.18 852 25.16 5.8 42.5 46 -5 23
00:50 1022 30.18 852 25.16 5.9 42.6 47 -4.6 23.8
00:55 1022 30.18 852 25.16 5.6 42 48 -4.7 23.6
01:00 1022 30.18 852 25.16 5.8 42.4 46 -4.8 23.3
01:05 1022 30.18 852 25.16 6 42.8 46 -4.7 23.5
01:10 1022 30.18 852 25.16 6 42.8 48 -4.3 24.2
01:15 1023 30.21 852 25.16 5.8 42.4 48 -4.5 23.9
01:20 1023 30.21 852 25.16 5.7 42.2 48 -4.6 23.8
01:25 1023 30.21 852 25.16 5.7 42.2 48 -4.6 23.7
01:30 1023 30.21 852 25.16 5.7 42.2 48 -4.5 23.8
01:35 1023 30.21 852 25.16 5.5 42 49 -4.3 24.3
01:40 1023 30.21 852 25.16 5.3 41.5 50 -4.3 24.3
01:45 1023 30.21 852 25.16 5.1 41.3 51 -4.2 24.4
01:50 1023 30.21 852 25.16 4.9 40.8 52 -4 24.7
01:55 1023 30.21 852 25.16 4.5 40.2 53 -4.1 24.6
02:00 1023 30.21 852 25.16 4.5 40.2 54 -4.1 24.6
02:05 1023 30.21 852 25.16 4.5 40.1 53 -4.2 24.5
02:10 1023 30.21 852 25.16 4.7 40.5 52 -4.2 24.4
02:15 1023 30.21 852 25.16 4.9 40.8 52 -4.2 24.4
02:20 1023 30.21 853 25.19 5.2 41.3 50 -4.3 24.2
02:25 1023 30.21 853 25.19 5.3 41.6 50 -4.2 24.5
02:30 1023 30.21 853 25.19 4.9 40.9 52 -4 24.8
02:35 1023 30.21 852 25.16 4.7 40.5 52 -4.2 24.4
02:40 1023 30.21 852 25.16 4.8 40.7 52 -4.2 24.5
02:45 1023 30.21 852 25.16 4.6 40.3 55 -3.7 25.3
02:50 1023 30.21 852 25.16 3.8 38.8 58 -3.8 25.1
02:55 1023 30.21 852 25.16 3.6 38.5 56 -4.4 24.1
03:00 1023 30.21 852 25.16 4.1 39.3 55 -4.2 24.4
03:05 1023 30.21 853 25.19 3.9 39 56 -4.1 24.6
03:10 1023 30.21 853 25.19 3.7 38.6 57 -4 24.8
03:15 1023 30.21 853 25.19 3.3 37.9 59 -4 24.9
03:20 1023 30.21 853 25.19 2.9 37.3 59 -4.2 24.4
03:25 1023 30.21 852 25.16 3.2 37.8 58 -4.3 24.3
03:30 1023 30.21 852 25.16 3.4 38.1 57 -4.3 24.3
03:35 1023 30.21 852 25.16 3.3 38 58 -4.1 24.7
03:40 1023 30.21 853 25.19 3.3 37.9 57 -4.4 24.1
03:45 1023 30.21 853 25.19 3.5 38.4 57 -4.3 24.3
03:50 1023 30.21 853 25.19 3.7 38.6 56 -4.3 24.3
03:55 1023 30.21 853 25.19 4 39.1 55 -4.3 24.2
04:00 1023 30.21 853 25.19 4.2 39.5 54 -4.3 24.3
04:05 1023 30.21 853 25.19 4.3 39.8 54 -4 24.7
04:10 1023 30.21 853 25.19 3.6 38.5 59 -3.7 25.4
04:15 1024 30.24 853 25.19 3 37.5 59 -4.2 24.5
04:20 1024 30.24 853 25.19 3.3 38 57 -4.3 24.3
04:25 1024 30.24 853 25.19 3.8 38.9 55 -4.3 24.3
04:30 1024 30.24 853 25.19 4.2 39.5 54 -4.3 24.2
04:35 1024 30.24 853 25.19 4.3 39.8 53 -4.4 24.2
04:40 1023 30.21 853 25.19 4.4 39.8 53 -4.4 24.1
04:45 1023 30.21 853 25.19 4.1 39.5 56 -3.9 25.1
04:50 1024 30.24 853 25.19 3.5 38.3 58 -4.1 24.6
04:55 1023 30.21 853 25.19 3.4 38.1 59 -4 24.9
05:00 1023 30.21 853 25.19 2.9 37.2 61 -4 24.8
05:05 1023 30.21 853 25.19 2.8 37 60 -4.3 24.3
05:10 1023 30.21 853 25.19 3.3 38 57 -4.4 24
05:15 1023 30.21 853 25.19 3.7 38.7 56 -4.2 24.4
05:20 1023 30.21 853 25.19 3.7 38.7 57 -4 24.7
05:25 1023 30.21 853 25.19 3.6 38.5 57 -4.2 24.5
05:30 1023 30.21 853 25.19 3.6 38.5 57 -4.1 24.6
05:35 1023 30.21 853 25.19 3.4 38.1 58 -4.1 24.7
05:40 1023 30.21 853 25.19 3.2 37.8 59 -4.1 24.6
05:45 1023 30.21 853 25.19 3.1 37.6 59 -4 24.8
05:50 1023 30.21 853 25.19 2.9 37.2 59 -4.2 24.4
05:55 1023 30.21 853 25.19 3.1 37.6 58 -4.4 24.1
06:00 1023 30.21 853 25.19 3.4 38.1 57 -4.3 24.3
06:05 1023 30.21 853 25.19 3.5 38.3 56 -4.5 23.8
06:10 1023 30.21 852 25.16 3.8 38.9 54 -4.6 23.8
06:15 1023 30.21 852 25.16 4 39.2 53 -4.6 23.7
06:20 1023 30.21 852 25.16 3.9 39.1 54 -4.6 23.8
06:25 1023 30.21 853 25.19 3.7 38.6 54 -4.7 23.6
06:30 1023 30.21 853 25.19 3.8 38.8 54 -4.6 23.8
06:35 1023 30.21 853 25.19 3.8 38.9 52 -5 23
06:40 1023 30.21 853 25.19 4.4 40 53 -4.4 24.1
06:45 1023 30.21 853 25.19 4.5 40 52 -4.6 23.7
06:50 1023 30.21 853 25.19 4.6 40.3 52 -4.4 24.1
06:55 1024 30.24 853 25.19 4.8 40.7 50 -4.7 23.6
07:00 1024 30.24 853 25.19 5 41 51 -4.3 24.3
07:05 1024 30.24 853 25.19 4.5 40.1 53 -4.2 24.4
07:10 1024 30.24 853 25.19 4.2 39.6 53 -4.4 24
07:15 1024 30.24 853 25.19 4.1 39.4 54 -4.4 24.1
07:20 1024 30.24 853 25.19 4.2 39.5 53 -4.5 23.9
07:25 1024 30.24 853 25.19 4.4 40 53 -4.4 24.2
07:30 1024 30.24 853 25.19 4.4 39.8 54 -4.2 24.4
07:35 1024 30.24 853 25.19 4 39.2 54 -4.4 24
07:40 1024 30.24 853 25.19 4.4 40 52 -4.6 23.8
07:45 1024 30.24 853 25.19 4.9 40.9 51 -4.5 24
07:50 1024 30.24 853 25.19 5.2 41.3 49 -4.6 23.8
07:55 1024 30.24 853 25.19 5.2 41.4 50 -4.2 24.4
08:00 1024 30.24 853 25.19 5.5 41.9 49 -4.4 24
08:05 1024 30.24 853 25.19 6.1 43 47 -4.3 24.2
08:10 1024 30.24 854 25.22 6.6 43.9 46 -4.2 24.5
08:15 1024 30.24 854 25.22 6.8 44.3 45 -4.2 24.5
08:20 1024 30.24 854 25.22 6.8 44.2 44 -4.5 24
08:25 1024 30.24 854 25.22 7 44.6 45 -4.1 24.6
08:30 1024 30.24 854 25.22 7.7 45.9 44 -3.8 25.2
08:35 1025 30.27 854 25.22 8.3 46.9 43 -3.4 25.9
08:40 1025 30.27 854 25.22 8.4 47.1 40 -4.3 24.3
08:45 1025 30.27 854 25.22 8.7 47.7 40 -4 24.9
08:50 1025 30.27 854 25.22 8.5 47.4 43 -3.4 25.8
08:55 1025 30.27 854 25.22 8.4 47.1 44 -3 26.5
09:00 1025 30.27 854 25.22 8.8 47.9 41 -3.8 25.2
09:05 1025 30.27 854 25.22 9.3 48.8 39 -3.8 25.1
09:10 1025 30.27 854 25.22 9.5 49.1 38 -4 24.9
09:15 1025 30.27 854 25.22 8.9 48 41 -3.6 25.5
09:20 1025 30.27 854 25.22 8.4 47.2 42 -3.8 25.1
09:25 1025 30.27 854 25.22 8.9 48.1 41 -3.6 25.5
09:30 1025 30.27 854 25.22 8.7 47.7 43 -3.2 26.2
09:35 1025 30.27 854 25.22 8.8 47.9 42 -3.5 25.7
09:40 1025 30.27 854 25.22 9.4 49 39 -3.7 25.4
09:45 1025 30.27 854 25.22 10.1 50.1 38 -3.4 25.8
09:50 1025 30.27 854 25.22 10.5 50.9 37 -3.5 25.7
09:55 1025 30.27 854 25.22 10.8 51.5 37 -3.3 26
10:00 1025 30.27 854 25.22 10.6 51.2 38 -3 26.6
10:05 1025 30.27 854 25.22 10.5 50.9 39 -2.8 27
10:10 1025 30.27 854 25.22 10.9 51.7 38 -2.7 27.1
10:15 1025 30.27 854 25.22 11.3 52.3 36 -3 26.6
10:20 1025 30.27 854 25.22 12 53.5 36 -2.5 27.5
10:25 1025 30.27 854 25.22 11.9 53.4 36 -2.5 27.5
10:30 1025 30.27 854 25.22 12.3 54.2 35 -2.6 27.3
10:35 1025 30.27 854 25.22 12.7 54.8 34 -2.7 27.1
10:40 1025 30.27 854 25.22 12.4 54.3 36 -2.4 27.7
10:45 1025 30.27 854 25.22 12.1 53.8 35 -2.8 26.9
10:50 1025 30.27 854 25.22 12.1 53.8 37 -2 28.3
10:55 1025 30.27 854 25.22 12.3 54.1 34 -3.1 26.3
11:00 1025 30.27 854 25.22 12.7 54.8 35 -2.3 27.8
11:05 1025 30.27 855 25.25 12.6 54.6 35 -2.3 27.8
11:10 1025 30.27 854 25.22 12.6 54.7 35 -2.5 27.5
11:15 1025 30.27 855 25.25 12.7 54.9 34 -2.6 27.2
11:20 1025 30.27 855 25.25 12.2 54 37 -2 28.4
11:25 1025 30.27 855 25.25 12.3 54.1 34 -3.2 26.3
11:30 1025 30.27 855 25.25 13.7 56.6 32 -2.5 27.5
11:35 1025 30.27 854 25.22 13.8 56.8 33 -2.2 28
11:40 1025 30.27 854 25.22 13.9 57.1 31 -2.8 27
11:45 1025 30.27 854 25.22 13.8 56.9 33 -2 28.4
11:50 1025 30.27 854 25.22 13.5 56.3 33 -2.4 27.6
11:55 1025 30.27 854 25.22 14 57.3 31 -2.9 26.7
12:00 1025 30.27 854 25.22 14.8 58.6 30 -2.5 27.5
12:05 1025 30.27 854 25.22 14.8 58.6 30 -2.6 27.3
12:10 1025 30.27 854 25.22 14.6 58.2 31 -2.1 28.2
12:15 1025 30.27 854 25.22 13.7 56.6 32 -2.5 27.5
12:20 1025 30.27 854 25.22 14.3 57.8 30 -2.7 27.1
12:25 1025 30.27 854 25.22 14.9 58.8 29 -2.9 26.7
12:30 1025 30.27 854 25.22 15.5 59.9 28 -2.8 27
12:35 1025 30.27 854 25.22 16.1 60.9 27 -2.7 27.1
12:40 1025 30.27 854 25.22 15.9 60.6 29 -2.1 28.2
12:45 1025 30.27 854 25.22 15.8 60.4 28 -2.4 27.6
12:50 1025 30.27 854 25.22 15.7 60.3 28 -2.7 27.2
12:55 1025 30.27 854 25.22 15.6 60.2 29 -2.2 28.1
13:00 1025 30.27 854 25.22 15.1 59.1 29 -2.5 27.5
13:05 1025 30.27 854 25.22 15.4 59.7 28 -2.9 26.7
13:10 1025 30.27 854 25.22 16 60.8 26 -3.2 26.3
13:15 1025 30.27 854 25.22 16.2 61.2 27 -2.9 26.8
13:20 1025 30.27 854 25.22 16.9 62.3 25 -3.2 26.3
13:25 1025 30.27 854 25.22 16.9 62.4 25 -2.9 26.8
13:30 1025 30.27 854 25.22 16.6 61.8 25 -3.2 26.2
13:35 1025 30.27 854 25.22 16.8 62.3 25 -3.4 25.8
13:40 1025 30.27 854 25.22 17 62.6 24 -3.8 25.1
13:45 1025 30.27 854 25.22 17.1 62.7 23 -4.1 24.7
13:50 1025 30.27 854 25.22 17 62.5 24 -3.7 25.4
13:55 1025 30.27 854 25.22 17.1 62.7 23 -3.9 25
14:00 1025 30.27 854 25.22 17.3 63.2 23 -3.7 25.3
14:05 1025 30.27 854 25.22 16.7 62.1 25 -3.4 26
14:10 1025 30.27 854 25.22 16.9 62.4 24 -3.7 25.3
14:15 1025 30.27 854 25.22 17.1 62.8 23 -4.3 24.2
14:20 1025 30.27 854 25.22 17.5 63.4 24 -3.3 26
14:25 1025 30.27 854 25.22 17 62.5 23 -4 24.8
14:30 1025 30.27 854 25.22 17.3 63.2 23 -4 24.8
14:35 1025 30.27 854 25.22 17.6 63.6 23 -3.4 25.8
14:40 1025 30.27 854 25.22 17.6 63.6 23 -3.5 25.6
14:45 1025 30.27 854 25.22 17.5 63.6 22 -4.2 24.5
14:50 1025 30.27 854 25.22 17.5 63.4 21 -4.7 23.5
14:55 1025 30.27 854 25.22 17.4 63.3 23 -3.9 24.9
15:00 1025 30.27 854 25.22 16.9 62.4 23 -4.2 24.4
15:05 1025 30.27 854 25.22 16.2 61.1 24 -4.2 24.5
15:10 1025 30.27 854 25.22 16.2 61.1 23 -5.1 22.9
15:15 1025 30.27 854 25.22 16.4 61.5 23 -4.6 23.7
15:20 1025 30.27 854 25.22 16.5 61.8 22 -5 23
15:25 1025 30.27 854 25.22 17.1 62.8 21 -5.3 22.5
15:30 1025 30.27 854 25.22 17.2 63 21 -5 22.9
15:35 1025 30.27 854 25.22 17.5 63.5 21 -5 23.1
15:40 1025 30.27 854 25.22 17.4 63.3 22 -4.5 23.9
15:45 1025 30.27 854 25.22 16.9 62.4 23 -4.4 24.1
15:50 1025 30.27 854 25.22 16.8 62.2 24 -3.8 25.1
15:55 1025 30.27 854 25.22 16.8 62.2 23 -4.2 24.4
16:00 1025 30.27 854 25.22 16.7 62 24 -3.9 25
16:05 1025 30.27 854 25.22 16.6 61.9 24 -4.1 24.6
16:10 1025 30.27 854 25.22 16.8 62.2 23 -4.3 24.2
16:15 1025 30.27 854 25.22 16.8 62.2 23 -4.2 24.4
16:20 1025 30.27 854 25.22 16.3 61.4 23 -4.6 23.6
16:25 1025 30.27 854 25.22 16.4 61.5 23 -4.8 23.4
16:30 1025 30.27 854 25.22 16.3 61.4 24 -4.4 24.1
16:35 1025 30.27 854 25.22 16.1 61 25 -4.1 24.7
16:40 1025 30.27 854 25.22 16.1 61 24 -4.3 24.3
16:45 1025 30.27 854 25.22 16.2 61.1 24 -4.1 24.7
16:50 1025 30.27 854 25.22 15.7 60.2 26 -3.8 25.1
16:55 1025 30.27 854 25.22 15.3 59.6 26 -3.9 25
17:00 1025 30.27 854 25.22 15.1 59.2 26 -4 24.7
17:05 1025 30.27 854 25.22 15.2 59.4 26 -3.9 24.9
17:10 1025 30.27 854 25.22 15.1 59.1 27 -3.7 25.3
17:15 1025 30.27 854 25.22 14.8 58.7 28 -3.6 25.6
17:20 1025 30.27 854 25.22 14.4 57.9 29 -3.3 26
17:25 1025 30.27 854 25.22 14 57.2 30 -3.1 26.5
17:30 1025 30.27 854 25.22 13.2 55.7 33 -2.9 26.8
17:35 1025 30.27 854 25.22 12.7 54.8 35 -2.3 27.8
17:40 1025 30.27 854 25.22 11.8 53.2 38 -2.2 28.1
17:45 1025 30.27 854 25.22 11.1 52 38 -2.5 27.5
17:50 1025 30.27 854 25.22 10.9 51.6 39 -2.6 27.3
17:55 1025 30.27 854 25.22 10.1 50.3 40 -2.8 27
18:00 1025 30.27 854 25.22 9.7 49.5 40 -3.1 26.4
18:05 1025 30.27 854 25.22 9.4 49 41 -3 26.5
18:10 1025 30.27 855 25.25 9.3 48.7 41 -3.3 26.1
18:15 1025 30.27 855 25.25 9.2 48.5 41 -3.5 25.7
18:20 1025 30.27 855 25.25 9 48.2 43 -2.7 27.1
18:25 1026 30.3 855 25.25 8.2 46.7 45 -3 26.6
18:30 1026 30.3 855 25.25 8.1 46.5 44 -3.5 25.7
18:35 1025 30.27 855 25.25 8.4 47.1 42 -3.8 25.2
18:40 1026 30.3 855 25.25 8.4 47.1 44 -3.2 26.3
18:45 1026 30.3 855 25.25 8.2 46.8 42 -3.8 25.1
18:50 1026 30.3 855 25.25 8.5 47.2 44 -3.2 26.3
18:55 1026 30.3 855 25.25 7.9 46.2 45 -3.2 26.3
19:00 1026 30.3 855 25.25 7.7 45.8 46 -3.3 26
19:05 1026 30.3 855 25.25 7.7 45.8 45 -3.4 25.8
19:10 1026 30.3 855 25.25 7.8 46 45 -3.5 25.8
19:15 1026 30.3 855 25.25 7.9 46.2 43 -3.9 25
19:20 1026 30.3 855 25.25 8.1 46.6 43 -3.7 25.3
19:25 1026 30.3 855 25.25 8.2 46.7 42 -4.1 24.7
19:30 1026 30.3 855 25.25 8.4 47.2 40 -4.2 24.4
19:35 1026 30.3 855 25.25 8.4 47.1 40 -4.3 24.2
19:40 1026 30.3 855 25.25 8.4 47.1 40 -4.4 24
19:45 1026 30.3 855 25.25 8.3 47 41 -4.3 24.3
19:50 1026 30.3 855 25.25 8.1 46.5 40 -4.7 23.6
19:55 1026 30.3 855 25.25 8 46.4 41 -4.3 24.2
20:00 1026 30.3 855 25.25 7.7 45.9 42 -4.3 24.2
20:05 1026 30.3 855 25.25 7.5 45.4 42 -4.6 23.6
20:10 1026 30.3 855 25.25 7.7 45.9 41 -4.7 23.6
20:15 1026 30.3 855 25.25 7.6 45.7 43 -4.2 24.4
20:20 1026 30.3 855 25.25 7.3 45.2 42 -4.7 23.5
20:25 1026 30.3 855 25.25 7.5 45.5 40 -5.1 22.8
20:30 1026 30.3 855 25.25 7.8 46.1 41 -4.7 23.6
20:35 1026 30.3 855 25.25 7.7 45.9 41 -4.7 23.5
20:40 1026 30.3 855 25.25 7.5 45.4 42 -4.7 23.5
20:45 1026 30.3 855 25.25 7.2 45 42 -4.7 23.6
20:50 1026 30.3 855 25.25 6.8 44.3 44 -4.6 23.6
20:55 1026 30.3 855 25.25 6.5 43.7 44 -4.9 23.1
21:00 1026 30.3 855 25.25 6.7 44.1 42 -5.4 22.3
21:05 1026 30.3 855 25.25 7.3 45.1 41 -5.3 22.5
21:10 1026 30.3 855 25.25 7.3 45.1 41 -5 22.9
21:15 1026 30.3 855 25.25 6.9 44.5 42 -5 23.1
21:20 1026 30.3 855 25.25 6.6 43.8 43 -5.2 22.7
21:25 1026 30.3 855 25.25 6.6 43.9 42 -5.4 22.3
21:30 1026 30.3 855 25.25 6.6 43.9 42 -5.5 22.1
21:35 1026 30.3 855 25.25 6.8 44.2 41 -5.7 21.7
21:40 1026 30.3 855 25.25 6.8 44.3 41 -5.5 22.1
21:45 1026 30.3 855 25.25 6.7 44.1 42 -5.4 22.2
21:50 1026 30.3 855 25.25 6.6 44 41 -5.6 21.9
21:55 1026 30.3 855 25.25 6.6 44 42 -5.4 22.2
22:00 1026 30.3 855 25.25 6.3 43.4 42 -5.6 21.9
22:05 1026 30.3 855 25.25 6.4 43.6 40 -6.2 20.8
22:10 1026 30.3 855 25.25 6.7 44.1 40 -6 21.2
22:15 1026 30.3 855 25.25 6.5 43.6 42 -5.5 22.1
22:20 1026 30.3 855 25.25 5.8 42.5 44 -5.6 21.9
22:25 1026 30.3 855 25.25 5.5 42 44 -5.7 21.7
22:30 1026 30.3 855 25.25 5.5 41.9 42 -6.3 20.7
22:35 1026 30.3 855 25.25 5.9 42.6 42 -6.1 21
22:40 1026 30.3 855 25.25 6 42.8 42 -5.9 21.3
22:45 1026 30.3 855 25.25 6 42.8 42 -5.9 21.4
22:50 1026 30.3 855 25.25 6.1 43 43 -5.6 21.9
22:55 1026 30.3 855 25.25 6.1 43 42 -5.7 21.7
23:00 1026 30.3 855 25.25 6.3 43.4 40 -6.1 21
23:05 1026 30.3 855 25.25 6.9 44.4 39 -6.3 20.7
23:10 1026 30.3 855 25.25 6.7 44 39 -6.3 20.7
23:15 1026 30.3 855 25.25 6.4 43.6 39 -6.5 20.4
23:20 1026 30.3 855 25.25 6.3 43.3 39 -6.6 20.1
23:25 1026 30.3 855 25.25 6.4 43.5 38 -6.9 19.5
23:30 1026 30.3 855 25.25 6.7 44.1 37 -6.9 19.6
23:35 1026 30.3 855 25.25 7.1 44.8 35 -7.2 19.1
23:40 1026 30.3 855 25.25 7.1 44.9 41 -5.3 22.5
23:45 1026 30.3 855 25.25 6.2 43.2 42 -5.9 21.4
23:50 1026 30.3 855 25.25 6.1 43 43 -5.7 21.8
23:55 1026 30.3 855 25.25 6 42.8 44 -5.3 22.5
24:00 1026 30.3 855 25.25 5.4 41.7 47 -5 23